sensor_id;sensor_type;location;lat;lon;timestamp;P1;durP1;ratioP1;P2;durP2;ratioP2
10947;SDS011;5526;42.070;24.752;2022-07-23T00:02:24;4.70;;;4.20;;
10947;SDS011;5526;42.070;24.752;2022-07-23T00:04:51;4.32;;;3.92;;
10947;SDS011;5526;42.070;24.752;2022-07-23T00:07:18;4.55;;;4.25;;
10947;SDS011;5526;42.070;24.752;2022-07-23T00:09:45;5.85;;;4.43;;
10947;SDS011;5526;42.070;24.752;2022-07-23T00:12:12;6.15;;;4.10;;
10947;SDS011;5526;42.070;24.752;2022-07-23T00:14:40;5.43;;;4.85;;
10947;SDS011;5526;42.070;24.752;2022-07-23T00:17:07;6.03;;;5.43;;
10947;SDS011;5526;42.070;24.752;2022-07-23T00:19:34;5.43;;;4.93;;
10947;SDS011;5526;42.070;24.752;2022-07-23T00:22:01;8.27;;;5.65;;
10947;SDS011;5526;42.070;24.752;2022-07-23T00:24:28;5.63;;;5.18;;
10947;SDS011;5526;42.070;24.752;2022-07-23T00:26:55;8.40;;;5.00;;
10947;SDS011;5526;42.070;24.752;2022-07-23T00:29:22;4.97;;;4.57;;
10947;SDS011;5526;42.070;24.752;2022-07-23T00:31:50;4.63;;;4.22;;
10947;SDS011;5526;42.070;24.752;2022-07-23T00:34:17;5.07;;;4.53;;
10947;SDS011;5526;42.070;24.752;2022-07-23T00:36:44;4.60;;;4.10;;
10947;SDS011;5526;42.070;24.752;2022-07-23T00:39:11;7.07;;;4.05;;
10947;SDS011;5526;42.070;24.752;2022-07-23T00:41:38;4.38;;;3.97;;
10947;SDS011;5526;42.070;24.752;2022-07-23T00:44:14;5.10;;;4.30;;
10947;SDS011;5526;42.070;24.752;2022-07-23T00:46:46;5.15;;;4.38;;
10947;SDS011;5526;42.070;24.752;2022-07-23T00:49:15;5.18;;;4.22;;
10947;SDS011;5526;42.070;24.752;2022-07-23T00:51:42;5.43;;;4.13;;
10947;SDS011;5526;42.070;24.752;2022-07-23T00:54:09;4.20;;;3.90;;
10947;SDS011;5526;42.070;24.752;2022-07-23T00:56:37;4.22;;;3.72;;
10947;SDS011;5526;42.070;24.752;2022-07-23T00:59:04;4.50;;;3.70;;
10947;SDS011;5526;42.070;24.752;2022-07-23T01:01:32;4.50;;;4.10;;
10947;SDS011;5526;42.070;24.752;2022-07-23T01:03:59;4.50;;;4.15;;
10947;SDS011;5526;42.070;24.752;2022-07-23T01:06:27;4.85;;;4.38;;
10947;SDS011;5526;42.070;24.752;2022-07-23T01:08:55;5.72;;;4.50;;
10947;SDS011;5526;42.070;24.752;2022-07-23T01:11:22;4.90;;;4.40;;
10947;SDS011;5526;42.070;24.752;2022-07-23T01:13:50;4.90;;;4.50;;
10947;SDS011;5526;42.070;24.752;2022-07-23T01:16:17;5.38;;;4.93;;
10947;SDS011;5526;42.070;24.752;2022-07-23T01:18:43;6.40;;;5.38;;
10947;SDS011;5526;42.070;24.752;2022-07-23T01:21:10;6.10;;;5.35;;
10947;SDS011;5526;42.070;24.752;2022-07-23T01:23:41;5.85;;;5.25;;
10947;SDS011;5526;42.070;24.752;2022-07-23T01:26:08;6.28;;;5.45;;
10947;SDS011;5526;42.070;24.752;2022-07-23T01:28:35;6.07;;;5.47;;
10947;SDS011;5526;42.070;24.752;2022-07-23T01:31:01;6.60;;;6.00;;
10947;SDS011;5526;42.070;24.752;2022-07-23T01:33:28;6.80;;;5.80;;
10947;SDS011;5526;42.070;24.752;2022-07-23T01:35:55;5.78;;;5.22;;
10947;SDS011;5526;42.070;24.752;2022-07-23T01:38:22;7.32;;;6.32;;
10947;SDS011;5526;42.070;24.752;2022-07-23T01:40:51;6.40;;;5.78;;
10947;SDS011;5526;42.070;24.752;2022-07-23T01:43:18;6.63;;;5.93;;
10947;SDS011;5526;42.070;24.752;2022-07-23T01:45:45;6.28;;;5.68;;
10947;SDS011;5526;42.070;24.752;2022-07-23T01:48:11;6.55;;;5.93;;
10947;SDS011;5526;42.070;24.752;2022-07-23T01:50:38;7.00;;;5.78;;
10947;SDS011;5526;42.070;24.752;2022-07-23T01:53:05;7.30;;;6.68;;
10947;SDS011;5526;42.070;24.752;2022-07-23T01:55:32;9.73;;;8.23;;
10947;SDS011;5526;42.070;24.752;2022-07-23T01:58:00;9.05;;;8.10;;
10947;SDS011;5526;42.070;24.752;2022-07-23T02:00:27;8.05;;;7.10;;
10947;SDS011;5526;42.070;24.752;2022-07-23T02:02:54;6.35;;;5.75;;
10947;SDS011;5526;42.070;24.752;2022-07-23T02:05:23;5.50;;;5.00;;
10947;SDS011;5526;42.070;24.752;2022-07-23T02:07:50;4.82;;;4.40;;
10947;SDS011;5526;42.070;24.752;2022-07-23T02:10:17;4.90;;;4.50;;
10947;SDS011;5526;42.070;24.752;2022-07-23T02:12:44;4.20;;;3.80;;
10947;SDS011;5526;42.070;24.752;2022-07-23T02:15:12;3.63;;;3.33;;
10947;SDS011;5526;42.070;24.752;2022-07-23T02:17:40;3.67;;;3.38;;
10947;SDS011;5526;42.070;24.752;2022-07-23T02:20:07;3.83;;;2.90;;
10947;SDS011;5526;42.070;24.752;2022-07-23T02:22:35;3.13;;;2.92;;
10947;SDS011;5526;42.070;24.752;2022-07-23T02:25:03;4.45;;;3.03;;
10947;SDS011;5526;42.070;24.752;2022-07-23T02:27:31;3.85;;;3.40;;
10947;SDS011;5526;42.070;24.752;2022-07-23T02:29:58;3.92;;;3.15;;
10947;SDS011;5526;42.070;24.752;2022-07-23T02:32:26;3.53;;;3.22;;
10947;SDS011;5526;42.070;24.752;2022-07-23T02:34:53;6.43;;;3.22;;
10947;SDS011;5526;42.070;24.752;2022-07-23T02:37:20;3.75;;;3.20;;
10947;SDS011;5526;42.070;24.752;2022-07-23T02:39:47;3.67;;;3.17;;
10947;SDS011;5526;42.070;24.752;2022-07-23T02:42:14;4.25;;;3.00;;
10947;SDS011;5526;42.070;24.752;2022-07-23T02:44:41;3.50;;;3.20;;
10947;SDS011;5526;42.070;24.752;2022-07-23T02:47:08;5.47;;;3.00;;
10947;SDS011;5526;42.070;24.752;2022-07-23T02:49:37;3.78;;;3.20;;
10947;SDS011;5526;42.070;24.752;2022-07-23T02:52:04;3.78;;;3.40;;
10947;SDS011;5526;42.070;24.752;2022-07-23T02:54:31;4.50;;;3.47;;
10947;SDS011;5526;42.070;24.752;2022-07-23T02:56:58;5.57;;;3.38;;
10947;SDS011;5526;42.070;24.752;2022-07-23T02:59:25;4.65;;;3.20;;
10947;SDS011;5526;42.070;24.752;2022-07-23T03:01:52;6.57;;;3.47;;
10947;SDS011;5526;42.070;24.752;2022-07-23T03:04:18;6.90;;;3.47;;
10947;SDS011;5526;42.070;24.752;2022-07-23T03:06:47;5.07;;;3.20;;
10947;SDS011;5526;42.070;24.752;2022-07-23T03:09:14;4.68;;;3.15;;
10947;SDS011;5526;42.070;24.752;2022-07-23T03:11:41;5.32;;;3.70;;
10947;SDS011;5526;42.070;24.752;2022-07-23T03:14:08;4.63;;;3.70;;
10947;SDS011;5526;42.070;24.752;2022-07-23T03:16:38;4.13;;;3.70;;
10947;SDS011;5526;42.070;24.752;2022-07-23T03:19:05;3.38;;;3.17;;
10947;SDS011;5526;42.070;24.752;2022-07-23T03:21:32;4.65;;;3.10;;
10947;SDS011;5526;42.070;24.752;2022-07-23T03:24:00;6.28;;;3.20;;
10947;SDS011;5526;42.070;24.752;2022-07-23T03:26:27;3.80;;;3.50;;
10947;SDS011;5526;42.070;24.752;2022-07-23T03:28:54;4.90;;;3.47;;
10947;SDS011;5526;42.070;24.752;2022-07-23T03:31:21;4.25;;;3.85;;
10947;SDS011;5526;42.070;24.752;2022-07-23T03:33:48;4.22;;;3.45;;
10947;SDS011;5526;42.070;24.752;2022-07-23T03:36:15;3.42;;;3.13;;
10947;SDS011;5526;42.070;24.752;2022-07-23T03:38:42;3.40;;;3.20;;
10947;SDS011;5526;42.070;24.752;2022-07-23T03:41:10;3.65;;;3.20;;
10947;SDS011;5526;42.070;24.752;2022-07-23T03:43:37;4.18;;;3.78;;
10947;SDS011;5526;42.070;24.752;2022-07-23T03:46:04;4.88;;;3.92;;
10947;SDS011;5526;42.070;24.752;2022-07-23T03:48:31;5.63;;;4.53;;
10947;SDS011;5526;42.070;24.752;2022-07-23T03:50:58;5.55;;;4.32;;
10947;SDS011;5526;42.070;24.752;2022-07-23T03:53:25;5.10;;;4.53;;
10947;SDS011;5526;42.070;24.752;2022-07-23T03:55:52;5.40;;;4.38;;
10947;SDS011;5526;42.070;24.752;2022-07-23T03:58:20;5.68;;;4.68;;
10947;SDS011;5526;42.070;24.752;2022-07-23T04:00:47;4.85;;;4.38;;
10947;SDS011;5526;42.070;24.752;2022-07-23T04:03:14;4.93;;;4.43;;
10947;SDS011;5526;42.070;24.752;2022-07-23T04:05:41;4.97;;;4.38;;
10947;SDS011;5526;42.070;24.752;2022-07-23T04:08:08;4.10;;;3.78;;
10947;SDS011;5526;42.070;24.752;2022-07-23T04:10:35;5.85;;;4.13;;
10947;SDS011;5526;42.070;24.752;2022-07-23T04:13:02;5.78;;;4.43;;
10947;SDS011;5526;42.070;24.752;2022-07-23T04:15:30;6.97;;;4.38;;
10947;SDS011;5526;42.070;24.752;2022-07-23T04:17:57;4.53;;;4.18;;
10947;SDS011;5526;42.070;24.752;2022-07-23T04:20:24;7.82;;;4.63;;
10947;SDS011;5526;42.070;24.752;2022-07-23T04:22:51;4.47;;;4.15;;
10947;SDS011;5526;42.070;24.752;2022-07-23T04:25:18;4.65;;;4.25;;
10947;SDS011;5526;42.070;24.752;2022-07-23T04:27:45;4.15;;;3.80;;
10947;SDS011;5526;42.070;24.752;2022-07-23T04:30:12;4.72;;;4.30;;
10947;SDS011;5526;42.070;24.752;2022-07-23T04:32:40;4.80;;;4.15;;
10947;SDS011;5526;42.070;24.752;2022-07-23T04:35:08;6.50;;;4.00;;
10947;SDS011;5526;42.070;24.752;2022-07-23T04:37:35;4.95;;;3.92;;
10947;SDS011;5526;42.070;24.752;2022-07-23T04:40:02;4.50;;;4.10;;
10947;SDS011;5526;42.070;24.752;2022-07-23T04:42:29;4.45;;;4.00;;
10947;SDS011;5526;42.070;24.752;2022-07-23T04:44:56;4.18;;;3.85;;
10947;SDS011;5526;42.070;24.752;2022-07-23T04:47:23;4.70;;;4.13;;
10947;SDS011;5526;42.070;24.752;2022-07-23T04:49:51;6.50;;;4.78;;
10947;SDS011;5526;42.070;24.752;2022-07-23T04:52:18;6.65;;;4.63;;
10947;SDS011;5526;42.070;24.752;2022-07-23T04:54:45;7.15;;;5.22;;
10947;SDS011;5526;42.070;24.752;2022-07-23T04:57:12;5.45;;;5.05;;
10947;SDS011;5526;42.070;24.752;2022-07-23T04:59:39;5.88;;;5.30;;
10947;SDS011;5526;42.070;24.752;2022-07-23T05:02:06;5.53;;;4.72;;
10947;SDS011;5526;42.070;24.752;2022-07-23T05:04:33;5.50;;;5.10;;
10947;SDS011;5526;42.070;24.752;2022-07-23T05:07:01;5.95;;;5.18;;
10947;SDS011;5526;42.070;24.752;2022-07-23T05:09:29;5.82;;;5.30;;
10947;SDS011;5526;42.070;24.752;2022-07-23T05:11:56;6.15;;;5.53;;
10947;SDS011;5526;42.070;24.752;2022-07-23T05:14:22;8.05;;;5.72;;
10947;SDS011;5526;42.070;24.752;2022-07-23T05:16:49;6.70;;;6.10;;
10947;SDS011;5526;42.070;24.752;2022-07-23T05:19:17;7.10;;;6.40;;
10947;SDS011;5526;42.070;24.752;2022-07-23T05:21:44;6.82;;;6.15;;
10947;SDS011;5526;42.070;24.752;2022-07-23T05:24:12;7.85;;;6.65;;
10947;SDS011;5526;42.070;24.752;2022-07-23T05:26:39;7.35;;;6.50;;
10947;SDS011;5526;42.070;24.752;2022-07-23T05:29:06;5.97;;;5.38;;
10947;SDS011;5526;42.070;24.752;2022-07-23T05:31:33;6.72;;;5.80;;
10947;SDS011;5526;42.070;24.752;2022-07-23T05:34:00;7.07;;;6.30;;
10947;SDS011;5526;42.070;24.752;2022-07-23T05:36:27;8.25;;;5.70;;
10947;SDS011;5526;42.070;24.752;2022-07-23T05:38:54;8.52;;;6.07;;
10947;SDS011;5526;42.070;24.752;2022-07-23T05:41:22;7.53;;;6.30;;
10947;SDS011;5526;42.070;24.752;2022-07-23T05:43:49;7.00;;;6.40;;
10947;SDS011;5526;42.070;24.752;2022-07-23T05:46:16;8.80;;;7.25;;
10947;SDS011;5526;42.070;24.752;2022-07-23T05:48:43;8.60;;;6.88;;
10947;SDS011;5526;42.070;24.752;2022-07-23T05:51:20;8.80;;;6.90;;
10947;SDS011;5526;42.070;24.752;2022-07-23T05:53:47;9.68;;;6.78;;
10947;SDS011;5526;42.070;24.752;2022-07-23T05:56:14;7.35;;;6.53;;
10947;SDS011;5526;42.070;24.752;2022-07-23T05:58:43;7.70;;;6.55;;
10947;SDS011;5526;42.070;24.752;2022-07-23T06:01:10;8.23;;;7.20;;
10947;SDS011;5526;42.070;24.752;2022-07-23T06:03:37;7.43;;;6.60;;
10947;SDS011;5526;42.070;24.752;2022-07-23T06:06:05;8.00;;;7.28;;
10947;SDS011;5526;42.070;24.752;2022-07-23T06:08:32;9.05;;;7.10;;
10947;SDS011;5526;42.070;24.752;2022-07-23T06:10:59;7.55;;;6.85;;
10947;SDS011;5526;42.070;24.752;2022-07-23T06:13:26;7.95;;;7.15;;
10947;SDS011;5526;42.070;24.752;2022-07-23T06:15:54;8.15;;;6.88;;
10947;SDS011;5526;42.070;24.752;2022-07-23T06:18:21;8.38;;;7.68;;
10947;SDS011;5526;42.070;24.752;2022-07-23T06:20:48;8.43;;;7.60;;
10947;SDS011;5526;42.070;24.752;2022-07-23T06:23:15;7.82;;;7.03;;
10947;SDS011;5526;42.070;24.752;2022-07-23T06:25:42;9.70;;;7.53;;
10947;SDS011;5526;42.070;24.752;2022-07-23T06:28:09;7.70;;;6.95;;
10947;SDS011;5526;42.070;24.752;2022-07-23T06:30:36;8.88;;;6.80;;
10947;SDS011;5526;42.070;24.752;2022-07-23T06:33:04;7.85;;;7.03;;
10947;SDS011;5526;42.070;24.752;2022-07-23T06:35:31;10.88;;;7.32;;
10947;SDS011;5526;42.070;24.752;2022-07-23T06:37:59;10.70;;;7.68;;
10947;SDS011;5526;42.070;24.752;2022-07-23T06:40:27;10.43;;;7.82;;
10947;SDS011;5526;42.070;24.752;2022-07-23T06:42:53;10.05;;;8.35;;
10947;SDS011;5526;42.070;24.752;2022-07-23T06:45:20;8.52;;;7.75;;
10947;SDS011;5526;42.070;24.752;2022-07-23T06:47:47;8.27;;;7.50;;
10947;SDS011;5526;42.070;24.752;2022-07-23T06:50:17;10.40;;;7.63;;
10947;SDS011;5526;42.070;24.752;2022-07-23T06:52:44;8.35;;;7.55;;
10947;SDS011;5526;42.070;24.752;2022-07-23T06:55:11;11.13;;;8.10;;
10947;SDS011;5526;42.070;24.752;2022-07-23T06:57:38;7.95;;;7.22;;
10947;SDS011;5526;42.070;24.752;2022-07-23T07:00:05;9.77;;;7.07;;
10947;SDS011;5526;42.070;24.752;2022-07-23T07:02:33;9.50;;;7.55;;
10947;SDS011;5526;42.070;24.752;2022-07-23T07:05:00;8.82;;;7.80;;
10947;SDS011;5526;42.070;24.752;2022-07-23T07:07:29;8.70;;;7.38;;
10947;SDS011;5526;42.070;24.752;2022-07-23T07:09:56;11.73;;;7.97;;
10947;SDS011;5526;42.070;24.752;2022-07-23T07:12:23;10.70;;;8.25;;
10947;SDS011;5526;42.070;24.752;2022-07-23T07:14:50;8.85;;;7.57;;
10947;SDS011;5526;42.070;24.752;2022-07-23T07:17:19;8.50;;;7.70;;
10947;SDS011;5526;42.070;24.752;2022-07-23T07:19:46;8.80;;;8.00;;
10947;SDS011;5526;42.070;24.752;2022-07-23T07:22:14;11.60;;;8.50;;
10947;SDS011;5526;42.070;24.752;2022-07-23T07:24:42;8.98;;;8.07;;
10947;SDS011;5526;42.070;24.752;2022-07-23T07:27:09;9.05;;;7.65;;
10947;SDS011;5526;42.070;24.752;2022-07-23T07:29:36;9.63;;;8.10;;
10947;SDS011;5526;42.070;24.752;2022-07-23T07:32:03;8.95;;;8.15;;
10947;SDS011;5526;42.070;24.752;2022-07-23T07:34:31;9.68;;;7.65;;
10947;SDS011;5526;42.070;24.752;2022-07-23T07:36:59;8.18;;;7.47;;
10947;SDS011;5526;42.070;24.752;2022-07-23T07:39:26;8.88;;;7.82;;
10947;SDS011;5526;42.070;24.752;2022-07-23T07:41:54;8.55;;;7.75;;
10947;SDS011;5526;42.070;24.752;2022-07-23T07:44:21;9.02;;;8.10;;
10947;SDS011;5526;42.070;24.752;2022-07-23T07:46:48;9.30;;;8.02;;
10947;SDS011;5526;42.070;24.752;2022-07-23T07:49:15;10.13;;;8.27;;
10947;SDS011;5526;42.070;24.752;2022-07-23T07:51:44;9.20;;;7.90;;
10947;SDS011;5526;42.070;24.752;2022-07-23T07:54:11;10.60;;;7.65;;
10947;SDS011;5526;42.070;24.752;2022-07-23T07:56:38;7.95;;;7.15;;
10947;SDS011;5526;42.070;24.752;2022-07-23T07:59:06;8.15;;;7.45;;
10947;SDS011;5526;42.070;24.752;2022-07-23T08:01:33;8.27;;;7.47;;
10947;SDS011;5526;42.070;24.752;2022-07-23T08:04:01;12.05;;;7.93;;
10947;SDS011;5526;42.070;24.752;2022-07-23T08:06:27;8.50;;;7.70;;
10947;SDS011;5526;42.070;24.752;2022-07-23T08:08:55;8.77;;;7.85;;
10947;SDS011;5526;42.070;24.752;2022-07-23T08:11:21;8.90;;;7.97;;
10947;SDS011;5526;42.070;24.752;2022-07-23T08:13:48;9.02;;;8.15;;
10947;SDS011;5526;42.070;24.752;2022-07-23T08:16:17;8.20;;;7.38;;
10947;SDS011;5526;42.070;24.752;2022-07-23T08:18:44;8.70;;;7.85;;
10947;SDS011;5526;42.070;24.752;2022-07-23T08:21:11;8.32;;;7.53;;
10947;SDS011;5526;42.070;24.752;2022-07-23T08:23:39;9.73;;;8.18;;
10947;SDS011;5526;42.070;24.752;2022-07-23T08:26:06;10.82;;;7.78;;
10947;SDS011;5526;42.070;24.752;2022-07-23T08:28:33;8.20;;;7.53;;
10947;SDS011;5526;42.070;24.752;2022-07-23T08:31:00;7.18;;;6.60;;
10947;SDS011;5526;42.070;24.752;2022-07-23T08:33:29;7.78;;;7.05;;
10947;SDS011;5526;42.070;24.752;2022-07-23T08:35:56;12.30;;;6.88;;
10947;SDS011;5526;42.070;24.752;2022-07-23T08:38:22;7.78;;;7.18;;
10947;SDS011;5526;42.070;24.752;2022-07-23T08:40:50;9.73;;;7.20;;
10947;SDS011;5526;42.070;24.752;2022-07-23T08:43:20;7.38;;;6.70;;
10947;SDS011;5526;42.070;24.752;2022-07-23T08:45:49;7.72;;;6.95;;
10947;SDS011;5526;42.070;24.752;2022-07-23T08:48:17;7.15;;;6.40;;
10947;SDS011;5526;42.070;24.752;2022-07-23T08:50:48;7.07;;;6.63;;
10947;SDS011;5526;42.070;24.752;2022-07-23T08:53:16;7.50;;;6.88;;
10947;SDS011;5526;42.070;24.752;2022-07-23T08:55:45;7.28;;;6.78;;
10947;SDS011;5526;42.070;24.752;2022-07-23T08:58:13;6.88;;;6.38;;
10947;SDS011;5526;42.070;24.752;2022-07-23T09:00:41;7.32;;;6.65;;
10947;SDS011;5526;42.070;24.752;2022-07-23T09:03:09;6.50;;;5.93;;
10947;SDS011;5526;42.070;24.752;2022-07-23T09:05:42;6.93;;;6.32;;
10947;SDS011;5526;42.070;24.752;2022-07-23T09:08:12;6.90;;;6.40;;
10947;SDS011;5526;42.070;24.752;2022-07-23T09:13:27;6.63;;;6.13;;
10947;SDS011;5526;42.070;24.752;2022-07-23T09:15:57;7.18;;;6.45;;
10947;SDS011;5526;42.070;24.752;2022-07-23T09:18:36;5.75;;;5.43;;
10947;SDS011;5526;42.070;24.752;2022-07-23T09:21:06;6.28;;;5.65;;
10947;SDS011;5526;42.070;24.752;2022-07-23T09:23:39;6.22;;;5.50;;
10947;SDS011;5526;42.070;24.752;2022-07-23T09:26:16;6.30;;;5.70;;
10947;SDS011;5526;42.070;24.752;2022-07-23T09:28:50;5.57;;;5.18;;
10947;SDS011;5526;42.070;24.752;2022-07-23T09:31:19;7.10;;;5.28;;
10947;SDS011;5526;42.070;24.752;2022-07-23T09:33:46;7.47;;;6.55;;
10947;SDS011;5526;42.070;24.752;2022-07-23T09:36:13;6.65;;;6.15;;
10947;SDS011;5526;42.070;24.752;2022-07-23T09:38:49;5.38;;;4.88;;
10947;SDS011;5526;42.070;24.752;2022-07-23T09:41:16;5.90;;;5.40;;
10947;SDS011;5526;42.070;24.752;2022-07-23T09:43:44;6.88;;;5.53;;
10947;SDS011;5526;42.070;24.752;2022-07-23T09:46:17;6.07;;;5.53;;
10947;SDS011;5526;42.070;24.752;2022-07-23T09:48:49;4.90;;;4.47;;
10947;SDS011;5526;42.070;24.752;2022-07-23T09:51:16;8.02;;;4.97;;
10947;SDS011;5526;42.070;24.752;2022-07-23T09:53:45;5.05;;;4.60;;
10947;SDS011;5526;42.070;24.752;2022-07-23T09:56:14;6.75;;;4.93;;
10947;SDS011;5526;42.070;24.752;2022-07-23T09:58:43;5.22;;;4.50;;
10947;SDS011;5526;42.070;24.752;2022-07-23T10:01:14;5.20;;;4.70;;
10947;SDS011;5526;42.070;24.752;2022-07-23T10:03:42;5.22;;;4.80;;
10947;SDS011;5526;42.070;24.752;2022-07-23T10:06:09;5.47;;;4.97;;
10947;SDS011;5526;42.070;24.752;2022-07-23T10:08:36;6.47;;;5.03;;
10947;SDS011;5526;42.070;24.752;2022-07-23T10:11:07;6.43;;;5.50;;
10947;SDS011;5526;42.070;24.752;2022-07-23T10:13:39;5.82;;;4.90;;
10947;SDS011;5526;42.070;24.752;2022-07-23T10:16:26;5.22;;;4.85;;
10947;SDS011;5526;42.070;24.752;2022-07-23T10:18:54;5.20;;;4.80;;
10947;SDS011;5526;42.070;24.752;2022-07-23T10:21:23;6.55;;;5.13;;
10947;SDS011;5526;42.070;24.752;2022-07-23T10:23:58;5.90;;;5.30;;
10947;SDS011;5526;42.070;24.752;2022-07-23T10:26:38;5.18;;;4.78;;
10947;SDS011;5526;42.070;24.752;2022-07-23T10:29:17;5.38;;;4.90;;
10947;SDS011;5526;42.070;24.752;2022-07-23T10:31:58;5.30;;;4.90;;
10947;SDS011;5526;42.070;24.752;2022-07-23T10:34:30;9.25;;;4.95;;
10947;SDS011;5526;42.070;24.752;2022-07-23T10:37:12;9.50;;;5.28;;
10947;SDS011;5526;42.070;24.752;2022-07-23T10:39:43;5.25;;;4.85;;
10947;SDS011;5526;42.070;24.752;2022-07-23T10:42:11;6.03;;;4.82;;
10947;SDS011;5526;42.070;24.752;2022-07-23T10:44:40;5.80;;;5.15;;
10947;SDS011;5526;42.070;24.752;2022-07-23T10:47:09;5.22;;;4.60;;
10947;SDS011;5526;42.070;24.752;2022-07-23T10:49:53;7.22;;;4.95;;
10947;SDS011;5526;42.070;24.752;2022-07-23T10:52:40;9.60;;;5.22;;
10947;SDS011;5526;42.070;24.752;2022-07-23T10:58:10;5.85;;;5.25;;
10947;SDS011;5526;42.070;24.752;2022-07-23T11:00:44;5.80;;;5.20;;
10947;SDS011;5526;42.070;24.752;2022-07-23T11:03:28;8.05;;;5.25;;
10947;SDS011;5526;42.070;24.752;2022-07-23T11:05:57;6.88;;;5.60;;
10947;SDS011;5526;42.070;24.752;2022-07-23T11:08:24;5.95;;;5.38;;
10947;SDS011;5526;42.070;24.752;2022-07-23T11:10:52;5.47;;;5.10;;
10947;SDS011;5526;42.070;24.752;2022-07-23T11:13:28;6.75;;;5.43;;
10947;SDS011;5526;42.070;24.752;2022-07-23T11:16:13;6.35;;;5.43;;
10947;SDS011;5526;42.070;24.752;2022-07-23T11:18:52;6.07;;;5.60;;
10947;SDS011;5526;42.070;24.752;2022-07-23T11:21:43;6.00;;;5.60;;
10947;SDS011;5526;42.070;24.752;2022-07-23T11:24:21;5.78;;;5.35;;
10947;SDS011;5526;42.070;24.752;2022-07-23T11:26:50;6.90;;;5.50;;
10947;SDS011;5526;42.070;24.752;2022-07-23T11:29:42;5.60;;;5.10;;
10947;SDS011;5526;42.070;24.752;2022-07-23T11:32:26;7.32;;;5.32;;
10947;SDS011;5526;42.070;24.752;2022-07-23T11:34:56;6.07;;;5.53;;
10947;SDS011;5526;42.070;24.752;2022-07-23T11:37:27;5.75;;;5.22;;
10947;SDS011;5526;42.070;24.752;2022-07-23T11:39:59;6.00;;;5.40;;
10947;SDS011;5526;42.070;24.752;2022-07-23T11:42:27;6.28;;;5.70;;
10947;SDS011;5526;42.070;24.752;2022-07-23T11:44:54;6.30;;;5.20;;
10947;SDS011;5526;42.070;24.752;2022-07-23T11:47:22;7.32;;;5.22;;
10947;SDS011;5526;42.070;24.752;2022-07-23T11:49:55;5.68;;;5.13;;
10947;SDS011;5526;42.070;24.752;2022-07-23T11:52:23;7.85;;;5.43;;
10947;SDS011;5526;42.070;24.752;2022-07-23T11:54:51;5.45;;;5.15;;
10947;SDS011;5526;42.070;24.752;2022-07-23T11:57:20;6.40;;;5.88;;
10947;SDS011;5526;42.070;24.752;2022-07-23T11:59:52;6.20;;;5.60;;
10947;SDS011;5526;42.070;24.752;2022-07-23T12:02:22;6.65;;;5.50;;
10947;SDS011;5526;42.070;24.752;2022-07-23T12:04:50;6.40;;;5.80;;
10947;SDS011;5526;42.070;24.752;2022-07-23T12:07:26;6.18;;;5.68;;
10947;SDS011;5526;42.070;24.752;2022-07-23T12:09:55;5.80;;;5.40;;
10947;SDS011;5526;42.070;24.752;2022-07-23T12:12:23;6.45;;;5.72;;
10947;SDS011;5526;42.070;24.752;2022-07-23T12:14:51;6.15;;;5.60;;
10947;SDS011;5526;42.070;24.752;2022-07-23T12:17:20;7.85;;;6.22;;
10947;SDS011;5526;42.070;24.752;2022-07-23T12:19:47;6.72;;;6.10;;
10947;SDS011;5526;42.070;24.752;2022-07-23T12:22:15;11.55;;;5.97;;
10947;SDS011;5526;42.070;24.752;2022-07-23T12:24:56;7.03;;;5.53;;
10947;SDS011;5526;42.070;24.752;2022-07-23T12:27:25;7.93;;;5.57;;
10947;SDS011;5526;42.070;24.752;2022-07-23T12:29:53;5.97;;;5.40;;
10947;SDS011;5526;42.070;24.752;2022-07-23T12:32:21;6.72;;;6.10;;
10947;SDS011;5526;42.070;24.752;2022-07-23T12:34:50;6.65;;;6.03;;
10947;SDS011;5526;42.070;24.752;2022-07-23T12:37:28;5.95;;;5.53;;
10947;SDS011;5526;42.070;24.752;2022-07-23T12:39:58;6.78;;;5.60;;
10947;SDS011;5526;42.070;24.752;2022-07-23T12:42:44;7.72;;;5.95;;
10947;SDS011;5526;42.070;24.752;2022-07-23T12:45:12;6.65;;;5.63;;
10947;SDS011;5526;42.070;24.752;2022-07-23T12:47:56;9.18;;;6.13;;
10947;SDS011;5526;42.070;24.752;2022-07-23T12:50:40;6.53;;;5.90;;
10947;SDS011;5526;42.070;24.752;2022-07-23T12:53:09;9.25;;;5.90;;
10947;SDS011;5526;42.070;24.752;2022-07-23T12:55:40;6.70;;;5.80;;
10947;SDS011;5526;42.070;24.752;2022-07-23T12:58:09;7.38;;;5.60;;
10947;SDS011;5526;42.070;24.752;2022-07-23T13:00:57;7.20;;;5.95;;
10947;SDS011;5526;42.070;24.752;2022-07-23T13:03:32;6.10;;;5.50;;
10947;SDS011;5526;42.070;24.752;2022-07-23T13:06:03;5.80;;;5.22;;
10947;SDS011;5526;42.070;24.752;2022-07-23T13:08:32;7.90;;;5.90;;
10947;SDS011;5526;42.070;24.752;2022-07-23T13:11:02;9.38;;;5.63;;
10947;SDS011;5526;42.070;24.752;2022-07-23T13:13:30;6.50;;;5.80;;
10947;SDS011;5526;42.070;24.752;2022-07-23T13:15:59;6.47;;;5.50;;
10947;SDS011;5526;42.070;24.752;2022-07-23T13:18:27;7.68;;;5.70;;
10947;SDS011;5526;42.070;24.752;2022-07-23T13:20:55;8.88;;;6.05;;
10947;SDS011;5526;42.070;24.752;2022-07-23T13:23:23;6.65;;;5.60;;
10947;SDS011;5526;42.070;24.752;2022-07-23T13:25:50;7.20;;;5.40;;
10947;SDS011;5526;42.070;24.752;2022-07-23T13:28:19;6.43;;;5.40;;
10947;SDS011;5526;42.070;24.752;2022-07-23T13:30:48;6.20;;;5.60;;
10947;SDS011;5526;42.070;24.752;2022-07-23T13:33:16;6.20;;;5.55;;
10947;SDS011;5526;42.070;24.752;2022-07-23T13:35:44;9.98;;;5.90;;
10947;SDS011;5526;42.070;24.752;2022-07-23T13:38:11;6.22;;;5.55;;
10947;SDS011;5526;42.070;24.752;2022-07-23T13:40:39;6.57;;;5.80;;
10947;SDS011;5526;42.070;24.752;2022-07-23T13:43:08;6.45;;;5.80;;
10947;SDS011;5526;42.070;24.752;2022-07-23T13:45:38;7.40;;;5.97;;
10947;SDS011;5526;42.070;24.752;2022-07-23T13:48:07;6.50;;;5.90;;
10947;SDS011;5526;42.070;24.752;2022-07-23T13:50:35;6.35;;;5.85;;
10947;SDS011;5526;42.070;24.752;2022-07-23T13:53:04;6.68;;;6.07;;
10947;SDS011;5526;42.070;24.752;2022-07-23T13:55:32;6.93;;;6.20;;
10947;SDS011;5526;42.070;24.752;2022-07-23T13:58:00;6.00;;;5.55;;
10947;SDS011;5526;42.070;24.752;2022-07-23T14:00:27;8.65;;;6.07;;
10947;SDS011;5526;42.070;24.752;2022-07-23T14:02:57;6.38;;;5.72;;
10947;SDS011;5526;42.070;24.752;2022-07-23T14:05:25;6.15;;;5.50;;
10947;SDS011;5526;42.070;24.752;2022-07-23T14:07:52;6.43;;;5.63;;
10947;SDS011;5526;42.070;24.752;2022-07-23T14:10:20;6.63;;;6.03;;
10947;SDS011;5526;42.070;24.752;2022-07-23T14:12:48;6.43;;;5.82;;
10947;SDS011;5526;42.070;24.752;2022-07-23T14:15:16;7.82;;;5.93;;
10947;SDS011;5526;42.070;24.752;2022-07-23T14:17:44;8.40;;;5.95;;
10947;SDS011;5526;42.070;24.752;2022-07-23T14:20:13;8.07;;;5.93;;
10947;SDS011;5526;42.070;24.752;2022-07-23T14:22:41;7.32;;;5.40;;
10947;SDS011;5526;42.070;24.752;2022-07-23T14:25:09;6.40;;;5.80;;
10947;SDS011;5526;42.070;24.752;2022-07-23T14:27:37;8.88;;;6.00;;
10947;SDS011;5526;42.070;24.752;2022-07-23T14:30:05;6.60;;;5.82;;
10947;SDS011;5526;42.070;24.752;2022-07-23T14:32:33;6.95;;;5.85;;
10947;SDS011;5526;42.070;24.752;2022-07-23T14:35:00;8.55;;;6.32;;
10947;SDS011;5526;42.070;24.752;2022-07-23T14:37:29;7.60;;;5.60;;
10947;SDS011;5526;42.070;24.752;2022-07-23T14:39:56;9.05;;;6.10;;
10947;SDS011;5526;42.070;24.752;2022-07-23T14:42:23;6.78;;;6.20;;
10947;SDS011;5526;42.070;24.752;2022-07-23T14:44:50;8.45;;;6.43;;
10947;SDS011;5526;42.070;24.752;2022-07-23T14:47:17;7.82;;;6.20;;
10947;SDS011;5526;42.070;24.752;2022-07-23T14:49:44;6.32;;;5.82;;
10947;SDS011;5526;42.070;24.752;2022-07-23T14:52:11;6.63;;;6.00;;
10947;SDS011;5526;42.070;24.752;2022-07-23T14:54:39;6.53;;;5.93;;
10947;SDS011;5526;42.070;24.752;2022-07-23T14:57:06;6.80;;;5.70;;
10947;SDS011;5526;42.070;24.752;2022-07-23T14:59:34;6.85;;;5.32;;
10947;SDS011;5526;42.070;24.752;2022-07-23T15:02:01;6.05;;;5.47;;
10947;SDS011;5526;42.070;24.752;2022-07-23T15:04:28;5.97;;;5.47;;